Time;durP1;ratioP1;P1;durP2;ratioP2;P2;SDS_P1;SDS_P2;PMS_P1;PMS_P2;Temp;Humidity;BMP_temperature;BMP_pressure;BME280_temperature;BME280_humidity;BME280_pressure;Samples;Min_cycle;Max_cycle;Signal;HPM_P1;HPM_P2
2021/03/10 00:00:31;;;;;;;61.87;27.10;;;;;;;-3.11;67.20;98722.84;124456;1112;23088;-83
2021/03/10 00:03:06;;;;;;;62.53;28.83;;;;;;;-3.14;67.05;98717.80;124490;1112;23006;-83
2021/03/10 00:05:33;;;;;;;55.27;24.80;;;;;;;-3.13;67.10;98722.16;124429;1112;23238;-83
2021/03/10 00:07:59;;;;;;;60.20;24.85;;;;;;;-3.14;67.68;98723.95;124408;1112;27399;-84
2021/03/10 00:10:26;;;;;;;57.83;23.80;;;;;;;-3.12;67.89;98718.48;124425;1112;23089;-81
2021/03/10 00:12:53;;;;;;;52.20;24.65;;;;;;;-3.13;66.81;98714.99;124432;1112;26038;-83
2021/03/10 00:15:20;;;;;;;54.03;22.37;;;;;;;-3.15;67.05;98718.78;124440;1112;23125;-82
2021/03/10 00:17:47;;;;;;;57.20;25.10;;;;;;;-3.18;67.32;98719.94;124436;1112;26418;-83
2021/03/10 00:20:15;;;;;;;54.10;22.17;;;;;;;-3.17;66.71;98718.95;124437;1112;24682;-86
2021/03/10 00:22:42;;;;;;;51.53;22.83;;;;;;;-3.17;67.50;98721.63;124449;1112;23035;-83
2021/03/10 00:25:10;;;;;;;54.50;22.07;;;;;;;-3.18;66.80;98713.78;124420;1112;23033;-83
2021/03/10 00:27:38;;;;;;;59.63;24.15;;;;;;;-3.19;67.85;98717.41;124671;1112;27319;-82
2021/03/10 00:30:08;;;;;;;50.70;21.80;;;;;;;-3.19;66.86;98718.25;124447;1112;23025;-85
2021/03/10 00:32:36;;;;;;;53.07;23.37;;;;;;;-3.20;68.36;98718.42;124480;1112;27713;-82
2021/03/10 00:35:04;;;;;;;53.10;23.05;;;;;;;-3.18;68.10;98716.44;124475;1112;26447;-82
2021/03/10 00:37:30;;;;;;;57.67;23.17;;;;;;;-3.15;68.05;98710.79;124532;1112;23033;-83
2021/03/10 00:39:57;;;;;;;50.97;23.10;;;;;;;-3.10;68.27;98711.17;124534;1112;23245;-84
2021/03/10 00:42:24;;;;;;;52.43;22.83;;;;;;;-3.07;68.29;98706.37;124493;1112;23092;-83
2021/03/10 00:44:51;;;;;;;60.63;23.77;;;;;;;-3.03;67.12;98709.58;124406;1112;23085;-82
2021/03/10 00:47:17;;;;;;;60.13;24.30;;;;;;;-3.00;68.21;98708.45;124430;1112;24700;-82
2021/03/10 00:49:44;;;;;;;57.83;24.03;;;;;;;-3.02;67.23;98705.94;124435;1112;23034;-83
2021/03/10 00:52:11;;;;;;;58.23;22.77;;;;;;;-3.07;67.48;98698.39;124623;1112;26060;-83
2021/03/10 00:54:40;;;;;;;52.35;22.65;;;;;;;-3.12;66.43;98700.67;124443;1112;23076;-81
2021/03/10 00:57:07;;;;;;;48.37;22.10;;;;;;;-3.15;67.72;98693.00;124471;1112;23095;-82
2021/03/10 00:59:34;;;;;;;54.43;24.10;;;;;;;-3.20;68.03;98689.13;124427;1114;23239;-83
2021/03/10 01:02:01;;;;;;;58.10;24.10;;;;;;;-3.20;66.79;98694.45;124538;1112;23050;-85
2021/03/10 01:04:28;;;;;;;59.03;23.97;;;;;;;-3.23;68.15;98687.59;124437;1112;23090;-85
2021/03/10 01:06:55;;;;;;;56.63;24.77;;;;;;;-3.27;67.40;98679.06;124488;1112;23092;-83
2021/03/10 01:09:22;;;;;;;55.15;24.70;;;;;;;-3.28;67.50;98681.87;124446;1112;26430;-80
2021/03/10 01:11:49;;;;;;;60.03;24.07;;;;;;;-3.31;68.32;98685.69;124420;1112;23215;-80
2021/03/10 01:14:15;;;;;;;60.20;25.50;;;;;;;-3.34;67.49;98682.49;124464;1112;26066;-82
2021/03/10 01:16:42;;;;;;;53.70;25.17;;;;;;;-3.37;68.59;98683.61;124521;1112;23627;-81
2021/03/10 01:19:09;;;;;;;60.97;26.70;;;;;;;-3.39;68.39;98688.25;124570;1112;23173;-82
2021/03/10 01:21:36;;;;;;;49.17;23.50;;;;;;;-3.39;68.66;98690.09;124575;1112;23030;-81
2021/03/10 01:24:07;;;;;;;56.63;23.87;;;;;;;-3.40;67.91;98686.56;124422;1112;23032;-84
2021/03/10 01:26:34;;;;;;;52.40;23.23;;;;;;;-3.40;68.04;98685.73;124584;1112;23093;-85
2021/03/10 01:29:01;;;;;;;53.90;24.37;;;;;;;-3.41;67.97;98679.59;124448;1112;23191;-82
2021/03/10 01:31:27;;;;;;;54.83;23.90;;;;;;;-3.43;68.72;98676.24;124476;1112;23035;-83
2021/03/10 01:33:54;;;;;;;63.77;25.10;;;;;;;-3.41;68.95;98686.75;124440;1116;23090;-84
2021/03/10 01:36:20;;;;;;;57.13;22.53;;;;;;;-3.43;68.52;98678.91;124396;1112;27527;-83
2021/03/10 01:38:47;;;;;;;53.90;23.17;;;;;;;-3.39;69.02;98679.44;124571;1112;26501;-82
2021/03/10 01:41:14;;;;;;;54.67;23.13;;;;;;;-3.38;68.55;98684.62;124525;1112;23030;-83
2021/03/10 01:43:40;;;;;;;53.83;23.67;;;;;;;-3.37;68.30;98683.61;124436;1112;23106;-85
2021/03/10 01:46:07;;;;;;;53.63;24.47;;;;;;;-3.40;68.43;98683.08;124465;1112;26565;-82
2021/03/10 01:48:35;;;;;;;57.43;24.93;;;;;;;-3.47;68.70;98675.70;124418;1112;26089;-85
2021/03/10 01:51:06;;;;;;;58.43;24.40;;;;;;;-3.48;68.39;98676.68;124485;1112;24762;-82
2021/03/10 01:53:33;;;;;;;57.43;23.47;;;;;;;-3.46;68.52;98679.20;124554;1112;23268;-82
2021/03/10 01:56:01;;;;;;;58.35;25.15;;;;;;;-3.45;68.48;98671.06;124567;1112;24635;-80
2021/03/10 01:58:29;;;;;;;57.27;21.97;;;;;;;-3.47;68.47;98670.38;124480;1115;23043;-80
2021/03/10 02:00:56;;;;;;;61.10;25.50;;;;;;;-3.49;69.64;98677.69;124448;1116;24408;-85
2021/03/10 02:03:23;;;;;;;54.00;24.47;;;;;;;-3.50;69.60;98673.34;124664;1112;23126;-83
2021/03/10 02:05:50;;;;;;;56.93;24.67;;;;;;;-3.50;68.78;98669.84;124541;1113;23028;-82
2021/03/10 02:08:35;;;;;;;60.75;25.10;;;;;;;-3.46;68.81;98673.88;124403;1113;23037;-82
2021/03/10 02:11:09;;;;;;;55.93;24.67;;;;;;;-3.42;68.23;98671.75;124437;1113;23110;-82
2021/03/10 02:13:38;;;;;;;57.65;24.90;;;;;;;-3.51;67.77;98674.31;124400;1112;23228;-85
2021/03/10 02:16:26;;;;;;;57.13;25.70;;;;;;;-3.52;67.91;98672.66;124421;1113;27035;-82
2021/03/10 02:19:31;;;;;;;62.67;24.63;;;;;;;-3.54;68.75;98673.77;124402;1113;23199;-84
2021/03/10 02:22:02;;;;;;;59.27;24.73;;;;;;;-3.62;68.11;98678.02;124583;1111;23096;-82
2021/03/10 02:25:00;;;;;;;55.13;24.33;;;;;;;-3.68;68.13;98672.48;124469;1113;23035;-82
2021/03/10 02:27:48;;;;;;;59.43;24.57;;;;;;;-3.72;68.44;98663.09;124599;1113;26225;-82
2021/03/10 02:30:22;;;;;;;60.10;25.60;;;;;;;-3.66;69.88;98671.33;124447;1113;23064;-85
2021/03/10 02:33:09;;;;;;;69.90;24.83;;;;;;;-3.60;69.93;98669.06;124608;1112;26130;-82
2021/03/10 02:35:40;;;;;;;49.35;23.05;;;;;;;-3.57;69.68;98669.60;124585;1112;27580;-82
2021/03/10 02:38:09;;;;;;;48.67;22.90;;;;;;;-3.55;68.47;98678.27;124451;1113;23236;-82
2021/03/10 02:40:38;;;;;;;;;;;;;;;-3.55;69.19;98672.12;124478;1113;23242;-81
2021/03/10 02:43:08;;;;;;;55.98;22.10;;;;;;;-3.53;69.13;98673.63;124398;1113;21678;-81
2021/03/10 02:45:35;;;;;;;50.92;24.37;;;;;;;-3.50;69.42;98664.52;124429;1113;27482;-81
2021/03/10 02:48:04;;;;;;;48.30;22.60;;;;;;;-3.49;68.70;98680.34;124597;1113;27541;-81
2021/03/10 02:50:32;;;;;;;59.80;25.63;;;;;;;-3.53;68.24;98676.29;124457;1113;23033;-82
2021/03/10 02:53:04;;;;;;;54.80;23.43;;;;;;;-3.60;67.65;98677.05;124530;1113;23267;-81
2021/03/10 02:55:32;;;;;;;56.10;25.47;;;;;;;-3.61;68.90;98678.88;124446;1111;24673;-81
2021/03/10 02:57:59;;;;;;;48.03;22.63;;;;;;;-3.67;68.53;98684.78;124426;1112;23241;-82
2021/03/10 03:00:27;;;;;;;58.73;24.67;;;;;;;-3.74;68.56;98675.72;124469;1113;29534;-81
2021/03/10 03:02:53;;;;;;;54.30;23.57;;;;;;;-3.75;68.81;98684.67;124469;1113;23033;-84
2021/03/10 03:05:20;;;;;;;54.27;23.80;;;;;;;-3.82;67.76;98679.12;124386;1113;23033;-84
2021/03/10 03:07:48;;;;;;;59.10;23.45;;;;;;;-3.87;67.77;98686.72;124468;1113;23041;-85
2021/03/10 03:10:31;;;;;;;57.30;24.13;;;;;;;-3.93;67.85;98677.50;124454;1113;23043;-82
2021/03/10 03:13:00;;;;;;;52.77;23.03;;;;;;;-3.97;68.56;98678.77;124703;1112;23016;-81
2021/03/10 03:15:27;;;;;;;53.15;23.10;;;;;;;-3.99;68.75;98678.08;124466;1113;26495;-81
2021/03/10 03:17:55;;;;;;;55.73;23.93;;;;;;;-4.01;69.09;98686.20;124397;1113;23106;-83
2021/03/10 03:20:24;;;;;;;61.13;25.77;;;;;;;-4.05;69.17;98689.31;124278;1113;26217;-83
2021/03/10 03:22:53;;;;;;;55.20;22.20;;;;;;;-4.08;68.85;98684.28;124598;1113;24191;-83
2021/03/10 03:25:25;;;;;;;53.30;23.37;;;;;;;-4.02;70.10;98684.54;124456;1113;23250;-82
2021/03/10 03:27:57;;;;;;;52.73;23.90;;;;;;;-3.98;69.84;98682.42;124458;1114;24666;-85
2021/03/10 03:30:25;;;;;;;54.75;24.30;;;;;;;-3.99;69.61;98687.89;124585;1112;23095;-84
2021/03/10 03:32:54;;;;;;;59.07;24.43;;;;;;;-3.99;69.26;98682.57;124378;1113;23032;-83
2021/03/10 03:35:22;;;;;;;56.25;25.75;;;;;;;-4.03;69.20;98677.53;124383;1112;24527;-85
2021/03/10 03:37:53;;;;;;;50.37;24.77;;;;;;;-4.07;69.58;98676.16;124367;1112;23252;-84
2021/03/10 03:40:24;;;;;;;55.85;23.90;;;;;;;-4.10;69.86;98679.11;124412;1113;27368;-82
2021/03/10 03:42:52;;;;;;;52.33;24.23;;;;;;;-4.16;69.13;98687.68;124639;1113;23838;-80
2021/03/10 03:45:20;;;;;;;54.63;23.33;;;;;;;-4.20;69.04;98679.16;124753;1113;27649;-80
2021/03/10 03:47:51;;;;;;;53.87;24.13;;;;;;;-4.22;69.71;98673.13;124735;1111;23096;-80
2021/03/10 03:50:19;;;;;;;49.20;22.97;;;;;;;-4.16;69.40;98685.02;124781;1113;23110;-80
2021/03/10 03:52:46;;;;;;;55.23;23.83;;;;;;;-4.11;69.50;98685.39;124794;1113;23043;-80
2021/03/10 03:55:14;;;;;;;57.50;24.47;;;;;;;-4.11;69.74;98688.05;124740;1113;23484;-81
2021/03/10 03:57:41;;;;;;;54.80;21.95;;;;;;;-4.08;70.14;98689.60;124761;1113;23089;-80
2021/03/10 04:00:10;;;;;;;50.07;23.77;;;;;;;-4.03;70.42;98682.02;124910;1111;23266;-81
2021/03/10 04:02:40;;;;;;;56.43;22.90;;;;;;;-4.03;69.60;98682.85;124801;1113;23842;-80
2021/03/10 04:05:07;;;;;;;55.50;24.20;;;;;;;-3.99;70.34;98691.38;124732;1113;23035;-80
2021/03/10 04:08:05;;;;;;;51.97;23.80;;;;;;;-3.96;69.52;98687.61;124945;1113;26204;-80
2021/03/10 04:10:37;;;;;;;56.00;24.60;;;;;;;-3.93;69.20;98696.13;124649;1113;23093;-81
2021/03/10 04:13:04;;;;;;;50.27;23.43;;;;;;;-3.99;69.21;98694.03;124728;1113;23089;-81
2021/03/10 04:15:33;;;;;;;54.13;23.53;;;;;;;-4.02;68.65;98696.98;124728;1113;23242;-81
2021/03/10 04:18:00;;;;;;;56.00;25.52;;;;;;;-4.06;68.71;98696.44;124976;1113;26446;-80
2021/03/10 04:20:27;;;;;;;57.20;24.40;;;;;;;-4.08;69.38;98701.06;124904;1113;23235;-80
2021/03/10 04:22:54;;;;;;;57.33;25.70;;;;;;;-4.11;68.83;98705.84;124756;1113;23082;-80
2021/03/10 04:25:21;;;;;;;54.43;24.60;;;;;;;-4.21;69.09;98706.72;124903;1113;23103;-80
2021/03/10 04:27:48;;;;;;;70.40;31.57;;;;;;;-4.38;70.24;98704.80;124684;1113;23093;-80
2021/03/10 04:30:15;;;;;;;77.80;30.23;;;;;;;-4.56;70.29;98710.02;124746;1112;23975;-81
2021/03/10 04:32:42;;;;;;;67.20;30.80;;;;;;;-4.72;70.74;98707.11;124711;1113;23010;-80
2021/03/10 04:35:10;;;;;;;67.33;30.93;;;;;;;-4.87;71.35;98701.38;124751;1113;23046;-80
2021/03/10 04:37:38;;;;;;;77.50;34.20;;;;;;;-4.94;72.03;98711.72;124833;1113;23089;-80
2021/03/10 04:40:06;;;;;;;78.60;32.33;;;;;;;-4.91;72.24;98706.13;124712;1113;23220;-80
2021/03/10 04:42:33;;;;;;;69.40;30.43;;;;;;;-4.86;72.23;98697.75;124774;1113;23038;-80
2021/03/10 04:44:59;;;;;;;72.95;29.75;;;;;;;-4.81;72.12;98700.83;124688;1111;23103;-80
2021/03/10 04:47:26;;;;;;;65.05;27.35;;;;;;;-4.76;72.35;98703.91;124673;1113;23006;-80
2021/03/10 04:49:53;;;;;;;64.37;29.80;;;;;;;-4.78;72.31;98696.07;124753;1113;23059;-80
2021/03/10 04:52:19;;;;;;;72.05;29.40;;;;;;;-4.77;72.37;98699.55;124661;1113;23260;-81
2021/03/10 04:54:46;;;;;;;61.33;27.87;;;;;;;-4.79;72.94;98699.69;124837;1113;23035;-80
2021/03/10 04:57:13;;;;;;;75.07;28.60;;;;;;;-4.75;73.46;98699.42;124706;1111;23093;-80
2021/03/10 04:59:39;;;;;;;67.80;28.30;;;;;;;-4.76;73.47;98703.91;124761;1113;23236;-80
2021/03/10 05:02:06;;;;;;;63.67;27.97;;;;;;;-4.77;73.54;98700.39;124938;1111;24825;-80
2021/03/10 05:04:33;;;;;;;64.47;27.33;;;;;;;-4.83;73.39;98708.94;124889;1112;23234;-81
2021/03/10 05:06:59;;;;;;;76.93;32.13;;;;;;;-4.88;73.70;98716.48;124630;1112;27524;-80
2021/03/10 05:09:26;;;;;;;74.20;31.20;;;;;;;-4.96;74.00;98713.67;124763;1113;23017;-81
2021/03/10 05:11:53;;;;;;;63.95;31.25;;;;;;;-4.99;74.14;98712.16;124807;1113;26086;-80
2021/03/10 05:14:19;;;;;;;73.20;28.83;;;;;;;-4.97;74.79;98722.64;124665;1113;23031;-80
2021/03/10 05:16:46;;;;;;;71.63;31.30;;;;;;;-4.91;74.87;98715.92;124661;1113;23245;-80
2021/03/10 05:19:13;;;;;;;69.70;28.73;;;;;;;-4.84;75.02;98722.35;124622;1111;23314;-79
2021/03/10 05:21:39;;;;;;;73.60;32.83;;;;;;;-4.73;75.39;98713.39;124548;1113;23109;-79
2021/03/10 05:24:07;;;;;;;69.70;29.60;;;;;;;-4.62;75.28;98715.89;124871;1113;23022;-79
2021/03/10 05:26:33;;;;;;;64.80;30.23;;;;;;;-4.53;74.71;98715.06;124883;1113;23053;-79
2021/03/10 05:29:00;;;;;;;70.73;29.97;;;;;;;-4.43;74.33;98715.02;124755;1113;22997;-79
2021/03/10 05:31:27;;;;;;;70.67;30.43;;;;;;;-4.34;74.19;98708.84;124572;1113;23031;-80
2021/03/10 05:33:53;;;;;;;66.97;30.23;;;;;;;-4.26;73.92;98716.12;124453;1113;23093;-80
2021/03/10 05:36:24;;;;;;;69.03;30.77;;;;;;;-4.21;73.91;98714.69;124833;1113;23785;-79
2021/03/10 05:38:51;;;;;;;67.60;29.10;;;;;;;-4.16;73.45;98708.95;124804;1113;23169;-79
2021/03/10 05:41:18;;;;;;;67.30;30.30;;;;;;;-4.11;73.54;98711.16;124916;1113;23040;-79
2021/03/10 05:43:45;;;;;;;68.00;31.95;;;;;;;-4.08;73.65;98708.22;124699;1113;28352;-79
2021/03/10 05:46:12;;;;;;;68.73;29.60;;;;;;;-4.02;72.98;98713.80;124428;1113;23235;-79
2021/03/10 05:48:39;;;;;;;66.70;29.73;;;;;;;-3.96;73.39;98708.88;124466;1113;23085;-81
2021/03/10 05:51:06;;;;;;;67.40;29.10;;;;;;;-3.91;73.22;98722.55;124566;1115;23781;-80
2021/03/10 05:53:43;;;;;;;71.13;30.57;;;;;;;-3.87;73.38;98718.64;124963;1113;26083;-80
2021/03/10 05:56:10;;;;;;;74.50;32.40;;;;;;;-3.91;73.00;98723.42;124986;1113;23107;-80
2021/03/10 05:58:37;;;;;;;81.40;34.93;;;;;;;-3.96;73.38;98722.19;124783;1113;26446;-80
2021/03/10 06:01:05;;;;;;;71.30;32.30;;;;;;;-4.00;72.59;98718.98;124592;1113;23046;-81
2021/03/10 06:03:31;;;;;;;76.83;31.87;;;;;;;-4.05;72.54;98723.89;124629;1113;23040;-79
2021/03/10 06:06:04;;;;;;;81.80;35.00;;;;;;;-4.09;73.67;98731.33;124473;1113;23030;-83
2021/03/10 06:08:33;;;;;;;69.50;29.77;;;;;;;-4.03;73.35;98725.41;124463;1113;23089;-81
2021/03/10 06:11:00;;;;;;;;;;;;;;;-3.93;73.40;98732.51;124517;1113;23035;-82
2021/03/10 06:13:31;;;;;;;64.80;28.80;;;;;;;-3.79;74.27;98736.52;124411;1113;21523;-81
2021/03/10 06:16:00;;;;;;;73.80;32.40;;;;;;;-3.72;73.00;98740.27;124418;1113;23247;-80
2021/03/10 06:18:35;;;;;;;76.13;31.93;;;;;;;-3.76;72.94;98730.91;124641;1113;23046;-85
2021/03/10 06:21:17;;;;;;;81.00;35.60;;;;;;;-3.83;72.94;98733.31;124546;1112;26360;-85
2021/03/10 06:24:00;;;;;;;74.33;34.83;;;;;;;-3.87;73.37;98737.27;124617;1113;23083;-85
2021/03/10 06:26:32;;;;;;;68.17;31.93;;;;;;;-3.80;74.14;98748.99;124403;1113;23088;-81
2021/03/10 06:29:01;;;;;;;66.07;31.97;;;;;;;-3.68;74.08;98749.66;124434;1113;23110;-82
2021/03/10 06:31:34;;;;;;;72.87;31.23;;;;;;;-3.55;73.38;98752.80;124475;1113;23036;-80
2021/03/10 06:34:13;;;;;;;70.40;31.55;;;;;;;-3.43;72.51;98756.11;124425;1112;23084;-83
2021/03/10 06:36:43;;;;;;;66.17;30.53;;;;;;;-3.30;72.37;98753.92;124428;1112;27374;-82
2021/03/10 06:39:12;;;;;;;72.47;33.23;;;;;;;-3.23;71.38;98758.66;124457;1113;24630;-81
2021/03/10 06:41:43;;;;;;;76.65;31.60;;;;;;;-3.20;72.52;98764.53;124502;1113;23153;-81
2021/03/10 06:44:29;;;;;;;76.97;35.30;;;;;;;-3.16;72.10;98759.73;124429;1113;23238;-80
2021/03/10 06:47:00;;;;;;;71.50;33.80;;;;;;;-3.13;72.51;98756.78;124514;1116;23866;-83
2021/03/10 06:49:32;;;;;;;80.57;35.40;;;;;;;-3.10;72.99;98762.65;124467;1113;26086;-81
2021/03/10 06:52:08;;;;;;;76.43;35.13;;;;;;;-3.05;72.79;98770.17;124540;1112;23034;-80
2021/03/10 06:54:36;;;;;;;68.40;33.17;;;;;;;-3.00;71.83;98775.89;124357;1116;27367;-82
2021/03/10 06:57:12;;;;;;;76.23;32.33;;;;;;;-2.92;71.72;98777.79;124458;1115;23022;-84
2021/03/10 06:59:41;;;;;;;69.83;32.77;;;;;;;-2.84;70.88;98785.05;124478;1112;23236;-80
2021/03/10 07:02:29;;;;;;;66.80;30.95;;;;;;;-2.79;70.59;98777.44;124548;1111;23236;-83
2021/03/10 07:04:58;;;;;;;69.83;32.03;;;;;;;-2.69;70.49;98780.87;124420;1113;23089;-83
2021/03/10 07:07:27;;;;;;;69.83;32.43;;;;;;;-2.57;70.75;98781.45;124426;1112;26443;-85
2021/03/10 07:09:54;;;;;;;74.00;31.42;;;;;;;-2.44;71.09;98779.25;124463;1112;23236;-85
2021/03/10 07:12:23;;;;;;;61.57;30.00;;;;;;;-2.31;70.22;98781.52;124398;1113;23001;-85
2021/03/10 07:14:50;;;;;;;61.02;27.10;;;;;;;-2.24;69.63;98789.75;124546;1113;23474;-84
2021/03/10 07:17:19;;;;;;;63.90;30.80;;;;;;;-2.23;68.58;98794.93;124410;1113;23107;-82
2021/03/10 07:19:47;;;;;;;;;;;;;;;-2.20;68.45;98791.92;124494;1113;23011;-82
2021/03/10 07:22:30;;;;;;;66.13;29.80;;;;;;;-2.16;68.71;98798.66;124368;1113;21532;-81
2021/03/10 07:25:11;;;;;;;60.33;28.10;;;;;;;-2.08;68.31;98791.70;124564;1112;23203;-82
2021/03/10 07:27:43;;;;;;;62.00;29.60;;;;;;;-2.00;68.42;98800.59;124419;1113;27524;-81
2021/03/10 07:30:11;;;;;;;60.60;27.57;;;;;;;-1.96;68.17;98790.45;124391;1113;23092;-82
2021/03/10 07:32:39;;;;;;;58.17;25.87;;;;;;;-1.93;68.27;98790.97;124514;1113;23097;-81
2021/03/10 07:35:11;;;;;;;51.53;22.53;;;;;;;-1.85;67.37;98798.19;124433;1113;23087;-82
2021/03/10 07:37:40;;;;;;;49.17;23.77;;;;;;;-1.78;67.81;98793.06;124420;1113;23054;-80
2021/03/10 07:40:13;;;;;;;51.17;22.27;;;;;;;-1.72;66.86;98798.61;124460;1113;23030;-83
2021/03/10 07:42:57;;;;;;;52.40;24.10;;;;;;;-1.65;66.92;98804.13;124664;1112;23053;-82
2021/03/10 07:45:41;;;;;;;44.63;21.73;;;;;;;-1.57;66.91;98796.17;124418;1113;23096;-82
2021/03/10 07:48:07;;;;;;;57.43;27.27;;;;;;;-1.48;66.46;98796.23;124466;1112;23039;-82
2021/03/10 07:50:53;;;;;;;48.05;23.85;;;;;;;-1.43;66.70;98794.75;124423;1113;23475;-81
2021/03/10 07:53:19;;;;;;;53.37;25.90;;;;;;;-1.37;66.24;98796.77;124347;1113;23030;-82
2021/03/10 07:55:48;;;;;;;42.03;21.10;;;;;;;-1.29;65.88;98797.80;124420;1113;23241;-82
2021/03/10 07:58:34;;;;;;;44.97;22.73;;;;;;;-1.21;65.23;98801.34;124402;1113;23035;-85
2021/03/10 08:01:01;;;;;;;38.83;18.23;;;;;;;-1.15;65.03;98799.88;124410;1113;23083;-86
2021/03/10 08:03:33;;;;;;;41.63;20.07;;;;;;;-1.08;64.96;98794.70;124391;1113;23087;-86
2021/03/10 08:06:05;;;;;;;35.67;18.47;;;;;;;-1.01;64.74;98796.58;124835;1113;27828;-81
2021/03/10 08:08:36;;;;;;;43.20;21.47;;;;;;;-0.94;63.70;98806.61;124427;1113;23093;-85
2021/03/10 08:11:13;;;;;;;43.40;19.23;;;;;;;-0.87;64.66;98799.61;125119;1113;23091;-80
2021/03/10 08:13:40;;;;;;;38.90;19.13;;;;;;;-0.80;63.75;98803.30;124866;1113;23069;-81
2021/03/10 08:16:10;;;;;;;35.07;18.10;;;;;;;-0.77;62.96;98798.46;124879;1113;24616;-81
2021/03/10 08:18:39;;;;;;;;;;;;;;;-0.71;62.95;98802.31;124604;1113;26415;-82
2021/03/10 08:21:11;;;;;;;43.60;20.53;;;;;;;-0.67;62.58;98803.68;124439;1113;24575;-84
2021/03/10 08:23:38;;;;;;;45.87;22.90;;;;;;;-0.56;62.88;98809.72;124630;1113;23105;-82
2021/03/10 08:26:10;;;;;;;51.67;24.13;;;;;;;-0.50;62.71;98809.88;124443;1113;23042;-85
2021/03/10 08:28:40;;;;;;;42.33;20.60;;;;;;;-0.43;61.71;98804.70;124420;1114;23241;-82
2021/03/10 08:31:10;;;;;;;51.87;22.93;;;;;;;-0.36;61.75;98805.71;124483;1113;23010;-82
2021/03/10 08:33:52;;;;;;;42.70;19.13;;;;;;;-0.32;61.35;98815.10;124479;1114;23046;-83
2021/03/10 08:36:30;;;;;;;45.53;22.80;;;;;;;-0.29;61.03;98813.91;124428;1115;26463;-82
2021/03/10 08:38:58;;;;;;;42.03;21.67;;;;;;;-0.27;61.12;98812.73;124450;1115;26237;-82
2021/03/10 08:41:25;;;;;;;33.67;15.90;;;;;;;-0.21;59.10;98814.76;124447;1116;23238;-83
2021/03/10 08:44:03;;;;;;;33.97;14.93;;;;;;;-0.14;58.32;98814.93;124447;1114;23092;-83
2021/03/10 08:46:42;;;;;;;37.63;16.67;;;;;;;-0.09;57.76;98799.20;124397;1115;23385;-82
2021/03/10 08:49:25;;;;;;;32.27;15.03;;;;;;;-0.02;57.47;98807.38;124508;1114;23036;-82
2021/03/10 08:52:13;;;;;;;32.23;13.40;;;;;;;0.07;57.19;98801.03;124390;1116;23904;-84
2021/03/10 08:54:52;;;;;;;23.73;11.93;;;;;;;0.21;55.09;98804.01;124637;1111;23033;-81
2021/03/10 08:57:21;;;;;;;19.87;8.77;;;;;;;0.29;52.79;98802.16;124469;1113;27364;-82
2021/03/10 08:59:50;;;;;;;;;;;;;;;0.32;53.61;98811.67;125644;1106;73864;-78
2021/03/10 09:02:32;;;;;;;14.18;8.10;;;;;;;0.36;51.74;98808.50;124477;1115;21523;-78
2021/03/10 09:05:02;;;;;;;9.93;5.40;;;;;;;0.42;51.55;98804.30;124461;1114;23190;-79
2021/03/10 09:07:30;;;;;;;14.50;7.33;;;;;;;0.51;50.37;98805.11;124458;1115;24364;-78
2021/03/10 09:10:08;;;;;;;7.50;4.23;;;;;;;0.58;49.67;98803.41;124483;1114;23228;-78
2021/03/10 09:12:41;;;;;;;7.47;3.73;;;;;;;0.66;48.03;98797.21;124419;1116;26563;-79
2021/03/10 09:15:11;;;;;;;15.70;7.40;;;;;;;0.70;48.44;98799.35;124397;1114;23073;-79
2021/03/10 09:17:41;;;;;;;19.00;7.73;;;;;;;0.80;49.46;98801.84;124434;1116;23020;-78
2021/03/10 09:20:27;;;;;;;12.57;5.90;;;;;;;0.87;47.82;98799.31;124541;1116;27539;-77
2021/03/10 09:22:57;;;;;;;11.15;5.70;;;;;;;0.97;48.17;98791.87;124448;1113;23077;-77
2021/03/10 09:25:40;;;;;;;13.03;5.33;;;;;;;1.05;46.37;98791.83;124647;1113;23100;-77
2021/03/10 09:28:16;;;;;;;9.75;5.25;;;;;;;1.14;44.26;98796.14;124663;1113;27829;-78
2021/03/10 09:31:15;;;;;;;16.70;7.57;;;;;;;1.22;46.71;98789.91;124657;1111;23167;-78
2021/03/10 09:33:50;;;;;;;15.03;7.50;;;;;;;1.29;46.96;98795.38;124624;1111;24749;-78
2021/03/10 09:36:24;;;;;;;12.47;7.13;;;;;;;1.39;44.92;98795.17;124436;1113;26589;-78
2021/03/10 09:38:53;;;;;;;9.27;5.37;;;;;;;1.43;44.12;98794.62;124550;1112;26441;-78
2021/03/10 09:41:26;;;;;;;10.80;5.83;;;;;;;1.46;44.85;98798.81;124613;1111;24662;-77
2021/03/10 09:44:08;;;;;;;9.13;4.83;;;;;;;1.53;43.33;98798.94;124432;1112;24855;-78
2021/03/10 09:46:43;;;;;;;8.63;4.87;;;;;;;1.60;41.91;98797.20;124594;1113;27683;-78
2021/03/10 09:49:13;;;;;;;8.20;4.30;;;;;;;1.65;41.01;98792.97;124566;1112;23080;-78
2021/03/10 09:51:48;;;;;;;8.97;4.90;;;;;;;1.69;41.27;98793.44;124509;1111;26048;-78
2021/03/10 09:54:18;;;;;;;10.10;4.30;;;;;;;1.77;41.77;98801.45;124466;1113;23151;-78
2021/03/10 09:56:54;;;;;;;8.97;4.63;;;;;;;1.88;41.24;98806.38;124664;1112;23090;-78
2021/03/10 09:59:33;;;;;;;12.10;4.83;;;;;;;1.94;41.24;98801.30;124634;1111;24627;-79
2021/03/10 10:02:03;;;;;;;9.00;5.27;;;;;;;2.00;40.21;98808.62;124590;1112;27303;-79
2021/03/10 10:04:33;;;;;;;13.10;5.83;;;;;;;2.03;40.86;98805.58;124488;1112;26431;-79
2021/03/10 10:07:02;;;;;;;8.98;5.05;;;;;;;2.04;40.22;98800.03;124931;1112;23614;-79
2021/03/10 10:09:39;;;;;;;7.87;4.10;;;;;;;2.09;39.88;98803.01;124596;1112;23161;-79
2021/03/10 10:12:28;;;;;;;8.10;4.67;;;;;;;2.14;40.80;98798.93;124989;1111;23036;-79
2021/03/10 10:15:00;;;;;;;;;;;;;;;2.16;39.90;98800.44;124764;1112;24670;-79
2021/03/10 10:17:30;;;;;;;20.40;5.10;;;;;;;2.15;40.26;98798.75;124717;1112;25832;-79
2021/03/10 10:20:00;;;;;;;10.93;4.80;;;;;;;2.19;40.38;98791.98;124483;1112;23070;-79
2021/03/10 10:22:27;;;;;;;9.77;5.40;;;;;;;2.23;40.89;98787.94;124568;1112;23199;-79
2021/03/10 10:24:54;;;;;;;9.10;5.20;;;;;;;2.26;39.94;98795.61;124564;1112;23215;-79
2021/03/10 10:27:21;;;;;;;11.45;5.70;;;;;;;2.33;40.92;98794.89;124646;1112;23020;-79
2021/03/10 10:29:48;;;;;;;11.00;6.27;;;;;;;2.44;40.99;98797.97;124609;1112;27512;-79
2021/03/10 10:32:16;;;;;;;10.93;5.53;;;;;;;2.52;40.31;98802.41;124654;1112;23020;-79
2021/03/10 10:34:43;;;;;;;9.65;5.40;;;;;;;2.58;39.86;98790.08;124564;1111;26549;-79
2021/03/10 10:37:14;;;;;;;11.20;5.70;;;;;;;2.64;40.25;98789.36;124517;1112;23027;-79
2021/03/10 10:39:51;;;;;;;11.80;6.55;;;;;;;2.66;40.18;98793.52;124679;1112;23030;-79
2021/03/10 10:42:18;;;;;;;11.00;6.90;;;;;;;2.71;40.49;98787.59;124561;1112;23090;-79
2021/03/10 10:44:47;;;;;;;10.90;5.50;;;;;;;2.77;39.72;98799.45;124807;1112;26288;-79
2021/03/10 10:47:18;;;;;;;11.23;6.03;;;;;;;2.80;39.77;98788.33;124612;1112;23026;-79
2021/03/10 10:49:47;;;;;;;10.97;5.67;;;;;;;2.90;39.67;98794.23;124678;1111;23229;-79
2021/03/10 10:52:14;;;;;;;10.73;6.00;;;;;;;2.94;39.90;98789.30;124576;1112;23634;-79
2021/03/10 10:54:41;;;;;;;13.37;6.97;;;;;;;2.92;39.92;98788.66;124523;1112;23037;-79
2021/03/10 10:57:09;;;;;;;14.25;6.25;;;;;;;2.95;39.03;98791.81;124515;1112;23079;-79
2021/03/10 10:59:39;;;;;;;11.33;5.97;;;;;;;2.97;38.78;98794.32;124638;1112;23191;-79
2021/03/10 11:02:13;;;;;;;9.70;5.63;;;;;;;2.98;38.78;98782.55;124667;1112;27355;-79
2021/03/10 11:04:44;;;;;;;10.93;6.63;;;;;;;2.99;39.75;98785.05;124778;1112;23035;-79
2021/03/10 11:07:13;;;;;;;11.60;6.73;;;;;;;3.03;39.27;98785.52;124522;1112;23042;-79
2021/03/10 11:09:41;;;;;;;12.20;6.90;;;;;;;3.08;39.32;98791.17;124572;1111;23027;-79
2021/03/10 11:12:12;;;;;;;13.60;6.70;;;;;;;3.13;39.39;98799.48;124466;1112;23225;-79
2021/03/10 11:14:41;;;;;;;11.15;5.70;;;;;;;3.19;39.38;98792.53;124692;1112;23019;-79
2021/03/10 11:17:10;;;;;;;9.78;5.85;;;;;;;3.28;39.69;98788.70;124929;1112;23079;-79
2021/03/10 11:19:46;;;;;;;10.93;6.17;;;;;;;3.34;39.11;98789.79;124908;1112;24311;-79
2021/03/10 11:22:14;;;;;;;13.03;6.57;;;;;;;3.41;38.71;98801.46;124707;1112;27719;-79
2021/03/10 11:24:41;;;;;;;15.60;7.37;;;;;;;3.49;39.63;98798.66;124636;1112;23029;-79
2021/03/10 11:27:09;;;;;;;10.00;5.93;;;;;;;3.62;39.20;98789.87;124477;1112;23037;-79
2021/03/10 11:29:38;;;;;;;10.20;6.50;;;;;;;3.74;38.06;98787.52;124771;1112;23036;-79